Time;durP1;ratioP1;P1;durP2;ratioP2;P2;SDS_P1;SDS_P2;PMS_P1;PMS_P2;Temp;Humidity;BMP_temperature;BMP_pressure;BME280_temperature;BME280_humidity;BME280_pressure;Samples;Min_cycle;Max_cycle;Signal;HPM_P1;HPM_P2
2021/12/22 00:01:11;;;;;;;24.77;12.20;;;;;;;;;;4902252;29;20028;-79
2021/12/22 00:03:36;;;;;;;29.30;11.48;;;;;;;;;;4928106;29;20115;-79
2021/12/22 00:06:02;;;;;;;25.23;11.85;;;;;;;;;;4918789;29;20070;-79
2021/12/22 00:08:28;;;;;;;20.77;10.82;;;;;;;;;;4929934;29;20177;-80
2021/12/22 00:10:54;;;;;;;23.27;12.02;;;;;;;;;;4927746;29;20056;-80
2021/12/22 00:13:20;;;;;;;21.48;10.95;;;;;;;;;;4944973;29;20032;-80
2021/12/22 00:15:45;;;;;;;23.23;11.80;;;;;;;;;;4928405;29;20478;-81
2021/12/22 00:18:10;;;;;;;21.02;11.30;;;;;;;;;;4925053;29;20065;-80
2021/12/22 00:20:36;;;;;;;25.08;12.73;;;;;;;;;;4921152;29;20024;-81
2021/12/22 00:23:02;;;;;;;19.35;11.32;;;;;;;;;;4930435;29;20083;-81
2021/12/22 00:25:28;;;;;;;21.48;11.52;;;;;;;;;;4931879;29;20389;-81
2021/12/22 00:27:56;;;;;;;19.40;11.80;;;;;;;;;;4928191;29;20102;-81
2021/12/22 00:30:24;;;;;;;22.17;10.98;;;;;;;;;;4925035;29;20020;-82
2021/12/22 00:32:52;;;;;;;21.58;11.90;;;;;;;;;;4923440;29;20410;-80
2021/12/22 00:35:20;;;;;;;20.00;11.65;;;;;;;;;;4920413;29;20083;-80
2021/12/22 00:37:46;;;;;;;18.05;9.88;;;;;;;;;;4927181;29;20536;-81
2021/12/22 00:40:12;;;;;;;24.88;11.63;;;;;;;;;;4901428;29;20567;-79
2021/12/22 00:42:37;;;;;;;23.65;11.07;;;;;;;;;;4925788;29;20048;-81
2021/12/22 00:45:04;;;;;;;32.58;11.13;;;;;;;;;;4926724;29;20099;-80
2021/12/22 00:47:31;;;;;;;20.27;11.13;;;;;;;;;;4923545;29;20434;-80
2021/12/22 00:49:58;;;;;;;20.88;11.35;;;;;;;;;;4936855;29;20620;-81
2021/12/22 00:52:23;;;;;;;19.92;10.40;;;;;;;;;;4921662;29;20031;-79
2021/12/22 00:54:49;;;;;;;23.27;9.80;;;;;;;;;;4923859;29;20031;-81
2021/12/22 00:57:15;;;;;;;15.82;8.85;;;;;;;;;;4931170;29;20056;-79
2021/12/22 00:59:41;;;;;;;21.27;11.35;;;;;;;;;;4922873;29;20012;-79
2021/12/22 01:02:08;;;;;;;22.65;10.80;;;;;;;;;;4912613;29;20035;-80
2021/12/22 01:04:34;;;;;;;18.95;10.23;;;;;;;;;;4920682;29;20032;-80
2021/12/22 01:06:59;;;;;;;20.27;10.45;;;;;;;;;;4910644;29;20021;-81
2021/12/22 01:09:25;;;;;;;20.15;9.30;;;;;;;;;;4926337;29;20019;-80
2021/12/22 01:11:51;;;;;;;17.90;9.02;;;;;;;;;;4913955;29;20035;-82
2021/12/22 01:14:16;;;;;;;21.50;10.93;;;;;;;;;;4931848;29;20115;-82
2021/12/22 01:16:48;;;;;;;18.92;9.70;;;;;;;;;;4927244;29;20088;-81
2021/12/22 01:19:21;;;;;;;17.83;9.98;;;;;;;;;;4931629;29;20016;-80
2021/12/22 01:21:59;;;;;;;17.35;9.60;;;;;;;;;;4918685;29;20040;-80
2021/12/22 01:24:33;;;;;;;17.95;9.52;;;;;;;;;;4928469;29;20102;-80
2021/12/22 01:27:06;;;;;;;23.08;10.60;;;;;;;;;;4929278;29;20087;-80
2021/12/22 01:29:33;;;;;;;18.20;9.75;;;;;;;;;;4920844;29;20023;-80
2021/12/22 01:31:58;;;;;;;19.20;10.07;;;;;;;;;;4920773;29;20083;-81
2021/12/22 01:34:25;;;;;;;17.80;10.35;;;;;;;;;;4932185;29;20055;-79
2021/12/22 01:36:51;;;;;;;18.25;10.38;;;;;;;;;;4928445;29;20039;-81
2021/12/22 01:39:17;;;;;;;20.05;9.00;;;;;;;;;;4923971;29;20032;-80
2021/12/22 01:41:42;;;;;;;20.90;9.95;;;;;;;;;;4924313;29;20047;-79
2021/12/22 01:44:10;;;;;;;21.65;10.35;;;;;;;;;;4927250;29;20489;-79
2021/12/22 01:49:10;;;;;;;16.52;9.85;;;;;;;;;;4927014;29;20023;-79
2021/12/22 01:51:46;;;;;;;20.38;9.55;;;;;;;;;;4918869;29;20059;-79
2021/12/22 01:54:21;;;;;;;18.15;9.40;;;;;;;;;;4912218;29;20028;-79
2021/12/22 01:56:51;;;;;;;28.63;9.13;;;;;;;;;;4905954;29;20078;-79
2021/12/22 01:59:20;;;;;;;14.82;8.93;;;;;;;;;;4920409;29;20047;-80
2021/12/22 02:01:46;;;;;;;20.40;8.93;;;;;;;;;;4918828;29;20028;-78
2021/12/22 02:04:13;;;;;;;19.13;10.32;;;;;;;;;;4917735;29;20028;-80
2021/12/22 02:06:45;;;;;;;16.73;9.38;;;;;;;;;;4918618;29;20035;-77
2021/12/22 02:09:12;;;;;;;19.33;10.75;;;;;;;;;;4919101;29;20028;-78
2021/12/22 02:11:38;;;;;;;19.35;9.27;;;;;;;;;;4921874;29;20095;-78
2021/12/22 02:14:06;;;;;;;13.27;8.63;;;;;;;;;;4916545;29;20057;-78
2021/12/22 02:16:35;;;;;;;16.67;9.32;;;;;;;;;;4918855;29;20035;-78
2021/12/22 02:19:04;;;;;;;17.90;9.18;;;;;;;;;;4933000;29;20036;-78
2021/12/22 02:21:34;;;;;;;28.05;9.73;;;;;;;;;;4909761;29;20028;-78
2021/12/22 02:24:00;;;;;;;15.40;8.73;;;;;;;;;;4921301;29;20071;-78
2021/12/22 02:26:36;;;;;;;15.75;9.60;;;;;;;;;;4919119;29;20028;-77
2021/12/22 02:29:07;;;;;;;21.58;10.75;;;;;;;;;;4919429;29;20545;-79
2021/12/22 02:31:43;;;;;;;20.25;9.13;;;;;;;;;;4918788;29;20028;-78
2021/12/22 02:34:14;;;;;;;21.58;10.05;;;;;;;;;;4919205;29;20028;-78
2021/12/22 02:36:41;;;;;;;18.03;9.57;;;;;;;;;;4919083;29;20478;-80
2021/12/22 02:39:07;;;;;;;17.95;9.52;;;;;;;;;;4917398;29;20043;-78
2021/12/22 02:41:36;;;;;;;21.48;10.48;;;;;;;;;;4917274;29;20107;-78
2021/12/22 02:44:03;;;;;;;22.65;11.57;;;;;;;;;;4917844;29;20027;-78
2021/12/22 02:46:34;;;;;;;19.40;10.57;;;;;;;;;;4917463;29;20035;-78
2021/12/22 02:49:01;;;;;;;22.05;10.43;;;;;;;;;;4921012;29;20024;-78
2021/12/22 02:51:30;;;;;;;20.30;9.98;;;;;;;;;;4917026;29;20504;-78
2021/12/22 02:56:36;;;;;;;18.63;9.48;;;;;;;;;;4916213;29;20402;-78
2021/12/22 03:02:09;;;;;;;20.80;10.10;;;;;;;;;;4917081;29;20055;-79
2021/12/22 03:04:44;;;;;;;19.92;9.20;;;;;;;;;;4937225;29;20055;-80
2021/12/22 03:07:17;;;;;;;15.75;9.38;;;;;;;;;;4916065;29;20028;-78
2021/12/22 03:09:43;;;;;;;16.98;9.27;;;;;;;;;;4925577;29;20099;-78
2021/12/22 03:12:12;;;;;;;17.70;9.50;;;;;;;;;;4917503;29;20087;-78
2021/12/22 03:14:37;;;;;;;18.92;9.80;;;;;;;;;;4922019;29;20566;-78
2021/12/22 03:17:03;;;;;;;18.02;11.07;;;;;;;;;;4923603;29;20110;-78
2021/12/22 03:19:31;;;;;;;20.35;9.80;;;;;;;;;;4917475;29;20032;-79
2021/12/22 03:22:03;;;;;;;19.38;8.35;;;;;;;;;;4917807;29;20036;-80
2021/12/22 03:24:34;;;;;;;21.35;10.32;;;;;;;;;;4912262;29;20193;-80
2021/12/22 03:27:02;;;;;;;15.88;8.63;;;;;;;;;;4925191;29;20079;-80
2021/12/22 03:29:28;;;;;;;16.00;9.27;;;;;;;;;;4919924;29;20061;-80
2021/12/22 03:31:54;;;;;;;19.05;10.32;;;;;;;;;;4919818;29;20024;-79
2021/12/22 03:34:19;;;;;;;19.05;10.23;;;;;;;;;;4916638;29;20389;-79
2021/12/22 03:36:45;;;;;;;16.88;10.05;;;;;;;;;;4918525;29;20040;-79
2021/12/22 03:39:13;;;;;;;18.08;10.00;;;;;;;;;;4900863;29;20079;-81
2021/12/22 03:41:40;;;;;;;23.67;11.00;;;;;;;;;;4918062;29;20091;-80
2021/12/22 03:44:06;;;;;;;17.20;9.38;;;;;;;;;;4903191;29;20105;-80
2021/12/22 03:46:32;;;;;;;19.40;10.40;;;;;;;;;;4920535;29;20028;-80
2021/12/22 03:48:58;;;;;;;21.48;10.27;;;;;;;;;;4920975;29;20028;-81
2021/12/22 03:51:27;;;;;;;22.20;11.15;;;;;;;;;;4920118;29;20036;-82
2021/12/22 03:53:53;;;;;;;17.42;10.32;;;;;;;;;;4920536;29;20042;-81
2021/12/22 03:56:18;;;;;;;20.45;10.60;;;;;;;;;;4920381;29;20111;-80
2021/12/22 03:58:44;;;;;;;22.95;10.90;;;;;;;;;;4921180;29;20089;-81
2021/12/22 04:01:09;;;;;;;21.52;10.52;;;;;;;;;;4920753;29;20463;-81
2021/12/22 04:03:37;;;;;;;22.05;10.38;;;;;;;;;;4920837;29;20156;-81
2021/12/22 04:06:03;;;;;;;16.48;10.18;;;;;;;;;;4919147;29;20076;-80
2021/12/22 04:08:29;;;;;;;16.40;10.48;;;;;;;;;;4913662;29;20110;-80
2021/12/22 04:10:54;;;;;;;17.48;9.77;;;;;;;;;;4919960;29;20064;-82
2021/12/22 04:13:20;;;;;;;19.17;9.52;;;;;;;;;;4920043;29;20035;-82
2021/12/22 04:15:47;;;;;;;18.17;10.50;;;;;;;;;;4926275;29;20448;-80
2021/12/22 04:18:13;;;;;;;16.08;8.63;;;;;;;;;;4920790;29;20060;-80
2021/12/22 04:20:39;;;;;;;18.80;10.32;;;;;;;;;;4914978;29;20467;-81
2021/12/22 04:23:05;;;;;;;24.92;11.27;;;;;;;;;;4918456;29;20054;-81
2021/12/22 04:25:31;;;;;;;15.20;9.45;;;;;;;;;;4920342;29;20375;-80
2021/12/22 04:28:05;;;;;;;19.63;10.13;;;;;;;;;;4936431;29;20534;-79
2021/12/22 04:30:35;;;;;;;17.52;9.93;;;;;;;;;;4926945;29;20406;-81
2021/12/22 04:33:01;;;;;;;16.08;9.93;;;;;;;;;;4934018;29;20034;-80
2021/12/22 04:35:27;;;;;;;19.13;10.10;;;;;;;;;;4933452;29;20066;-80
2021/12/22 04:37:53;;;;;;;15.60;9.20;;;;;;;;;;4927861;29;20039;-79
2021/12/22 04:40:18;;;;;;;21.58;10.85;;;;;;;;;;4935109;29;20040;-81
2021/12/22 04:42:44;;;;;;;18.90;11.90;;;;;;;;;;4939520;29;20028;-81
2021/12/22 04:45:11;;;;;;;16.70;9.88;;;;;;;;;;4942599;29;20020;-80
2021/12/22 04:47:37;;;;;;;17.60;10.00;;;;;;;;;;4928851;29;20103;-80
2021/12/22 04:50:12;;;;;;;23.60;11.23;;;;;;;;;;4932498;29;20055;-79
2021/12/22 04:52:45;;;;;;;15.55;10.13;;;;;;;;;;4926197;29;20024;-80
2021/12/22 04:55:10;;;;;;;16.98;9.70;;;;;;;;;;4922739;29;20036;-79
2021/12/22 04:57:36;;;;;;;20.92;10.88;;;;;;;;;;4923089;29;20034;-81
2021/12/22 05:00:06;;;;;;;25.80;11.40;;;;;;;;;;4916370;29;20047;-80
2021/12/22 05:02:31;;;;;;;14.85;8.98;;;;;;;;;;4918011;29;20051;-80
2021/12/22 05:04:57;;;;;;;21.23;9.63;;;;;;;;;;4922977;29;20016;-79
2021/12/22 05:07:22;;;;;;;20.20;10.80;;;;;;;;;;4928141;29;20483;-79
2021/12/22 05:09:47;;;;;;;18.38;10.60;;;;;;;;;;4935351;29;20060;-80
2021/12/22 05:12:13;;;;;;;18.10;10.15;;;;;;;;;;4930626;29;20479;-80
2021/12/22 05:14:39;;;;;;;24.90;9.30;;;;;;;;;;4921857;29;20108;-78
2021/12/22 05:17:06;;;;;;;21.88;9.52;;;;;;;;;;4922507;29;20027;-79
2021/12/22 05:19:31;;;;;;;16.92;8.80;;;;;;;;;;4922505;29;20432;-80
2021/12/22 05:21:57;;;;;;;16.23;9.38;;;;;;;;;;4919879;29;20031;-79
2021/12/22 05:24:23;;;;;;;15.15;9.68;;;;;;;;;;4921078;29;20023;-78
2021/12/22 05:26:48;;;;;;;20.52;10.55;;;;;;;;;;4917257;29;20624;-79
2021/12/22 05:29:14;;;;;;;17.00;9.65;;;;;;;;;;4913388;29;20119;-79
2021/12/22 05:31:39;;;;;;;12.98;8.45;;;;;;;;;;4913383;29;20052;-80
2021/12/22 05:34:05;;;;;;;19.83;10.20;;;;;;;;;;4921518;29;20032;-79
2021/12/22 05:36:31;;;;;;;18.10;9.55;;;;;;;;;;4918003;29;20024;-79
2021/12/22 05:38:56;;;;;;;18.05;9.57;;;;;;;;;;4919878;29;20032;-79
2021/12/22 05:41:22;;;;;;;21.95;10.93;;;;;;;;;;4922643;29;20028;-79
2021/12/22 05:43:47;;;;;;;29.00;13.50;;;;;;;;;;4921653;29;20040;-79
2021/12/22 05:46:14;;;;;;;25.30;13.38;;;;;;;;;;4922104;29;20020;-79
2021/12/22 05:48:39;;;;;;;27.35;14.65;;;;;;;;;;4922270;29;20501;-79
2021/12/22 05:51:05;;;;;;;26.08;13.55;;;;;;;;;;4923486;29;20028;-80
2021/12/22 05:53:30;;;;;;;26.75;12.95;;;;;;;;;;4921950;29;20028;-79
2021/12/22 05:55:57;;;;;;;22.38;11.50;;;;;;;;;;4922521;29;20498;-79
2021/12/22 05:58:23;;;;;;;22.27;11.32;;;;;;;;;;4924292;29;20062;-79
2021/12/22 06:00:49;;;;;;;19.27;10.13;;;;;;;;;;4923527;29;20028;-80
2021/12/22 06:03:15;;;;;;;24.75;11.95;;;;;;;;;;4923252;29;20056;-79
2021/12/22 06:05:41;;;;;;;24.98;13.77;;;;;;;;;;4922155;29;20112;-79
2021/12/22 06:08:06;;;;;;;26.40;12.95;;;;;;;;;;4922326;29;20032;-80
2021/12/22 06:10:34;;;;;;;21.75;12.63;;;;;;;;;;4923228;29;20470;-80
2021/12/22 06:13:05;;;;;;;25.45;14.05;;;;;;;;;;4922956;29;20091;-78
2021/12/22 06:15:33;;;;;;;21.03;11.37;;;;;;;;;;4921630;29;20038;-79
2021/12/22 06:17:59;;;;;;;24.48;12.13;;;;;;;;;;4922271;29;20796;-80
2021/12/22 06:20:26;;;;;;;16.80;9.32;;;;;;;;;;4922083;29;20563;-81
2021/12/22 06:22:51;;;;;;;18.50;10.57;;;;;;;;;;4921335;29;20109;-79
2021/12/22 06:25:19;;;;;;;20.25;10.00;;;;;;;;;;4920691;29;20043;-79
2021/12/22 06:27:44;;;;;;;19.42;9.98;;;;;;;;;;4921356;29;20085;-79
2021/12/22 06:30:11;;;;;;;16.42;9.48;;;;;;;;;;4925649;29;20031;-80
2021/12/22 06:32:37;;;;;;;15.98;9.85;;;;;;;;;;4922008;29;20036;-78
2021/12/22 06:35:03;;;;;;;26.30;10.70;;;;;;;;;;4921046;29;20039;-79
2021/12/22 06:37:29;;;;;;;19.65;10.73;;;;;;;;;;4920881;29;20043;-79
2021/12/22 06:39:54;;;;;;;18.42;10.40;;;;;;;;;;4920899;29;20028;-80
2021/12/22 06:42:19;;;;;;;18.85;10.05;;;;;;;;;;4918505;29;20446;-78
2021/12/22 06:44:45;;;;;;;22.92;10.20;;;;;;;;;;4920079;29;20020;-79
2021/12/22 06:47:10;;;;;;;20.17;10.88;;;;;;;;;;4919932;29;20050;-79
2021/12/22 06:49:36;;;;;;;20.02;10.80;;;;;;;;;;4919550;29;20016;-79
2021/12/22 06:52:02;;;;;;;21.05;9.82;;;;;;;;;;4919805;29;20024;-78
2021/12/22 06:54:28;;;;;;;24.95;12.25;;;;;;;;;;4924263;29;20558;-79
2021/12/22 06:56:53;;;;;;;19.33;10.50;;;;;;;;;;4918946;29;20032;-79
2021/12/22 06:59:18;;;;;;;23.25;11.13;;;;;;;;;;4924426;29;20024;-79
2021/12/22 07:01:45;;;;;;;20.45;10.80;;;;;;;;;;4920034;29;20028;-80
2021/12/22 07:04:10;;;;;;;24.58;12.02;;;;;;;;;;4919071;29;20626;-78
2021/12/22 07:06:36;;;;;;;18.08;11.23;;;;;;;;;;4922136;29;20038;-80
2021/12/22 07:09:05;;;;;;;19.60;10.45;;;;;;;;;;4927777;29;20024;-81
2021/12/22 07:11:30;;;;;;;16.35;9.63;;;;;;;;;;4905279;29;20024;-81
2021/12/22 07:13:55;;;;;;;19.30;10.15;;;;;;;;;;4919852;29;20035;-79
2021/12/22 07:16:21;;;;;;;20.05;10.23;;;;;;;;;;4919813;29;20028;-79
2021/12/22 07:18:46;;;;;;;19.40;10.45;;;;;;;;;;4918466;29;20479;-79
2021/12/22 07:21:12;;;;;;;24.05;11.25;;;;;;;;;;4922211;29;20088;-81
2021/12/22 07:23:37;;;;;;;26.45;12.25;;;;;;;;;;4921051;29;20481;-80
2021/12/22 07:26:03;;;;;;;23.52;11.38;;;;;;;;;;4921100;29;20458;-82
2021/12/22 07:28:28;;;;;;;19.85;11.73;;;;;;;;;;4931202;29;20024;-79
2021/12/22 07:30:53;;;;;;;17.70;9.75;;;;;;;;;;4923231;29;20447;-80
2021/12/22 07:33:19;;;;;;;22.02;11.10;;;;;;;;;;4920942;29;20024;-81
2021/12/22 07:35:58;;;;;;;24.05;10.73;;;;;;;;;;4922294;29;20438;-81
2021/12/22 07:38:42;;;;;;;17.60;10.63;;;;;;;;;;4920911;29;20467;-82
2021/12/22 07:41:09;;;;;;;20.27;9.80;;;;;;;;;;4921931;29;20032;-80
2021/12/22 07:43:36;;;;;;;21.27;10.85;;;;;;;;;;4923249;29;20048;-81
2021/12/22 07:46:03;;;;;;;31.77;12.07;;;;;;;;;;4923117;29;20024;-81
2021/12/22 07:48:28;;;;;;;23.50;11.15;;;;;;;;;;4921478;29;20035;-80
2021/12/22 07:50:54;;;;;;;20.60;10.43;;;;;;;;;;4920830;29;20032;-81
2021/12/22 07:53:20;;;;;;;23.25;11.50;;;;;;;;;;4922155;29;20028;-81
2021/12/22 07:55:46;;;;;;;26.15;11.55;;;;;;;;;;4921847;29;20028;-80
2021/12/22 07:58:12;;;;;;;18.98;10.68;;;;;;;;;;4921340;29;20080;-81
2021/12/22 08:00:38;;;;;;;24.10;10.90;;;;;;;;;;4921188;29;20104;-81
2021/12/22 08:03:03;;;;;;;20.35;11.40;;;;;;;;;;4921584;29;20032;-81
2021/12/22 08:05:29;;;;;;;21.48;11.63;;;;;;;;;;4903679;29;20035;-81
2021/12/22 08:07:56;;;;;;;20.83;11.13;;;;;;;;;;4921009;29;20031;-81
2021/12/22 08:10:22;;;;;;;19.65;10.98;;;;;;;;;;4924176;29;20039;-82
2021/12/22 08:12:48;;;;;;;24.88;12.75;;;;;;;;;;4918235;29;20051;-81
2021/12/22 08:15:15;;;;;;;25.58;12.52;;;;;;;;;;4925069;29;20485;-81
2021/12/22 08:17:40;;;;;;;22.75;12.77;;;;;;;;;;4920261;29;20028;-81
2021/12/22 08:20:06;;;;;;;24.98;12.15;;;;;;;;;;4920351;29;20111;-81
2021/12/22 08:22:31;;;;;;;24.70;12.88;;;;;;;;;;4903669;29;20549;-81
2021/12/22 08:24:57;;;;;;;24.67;12.52;;;;;;;;;;4920449;29;20585;-80
2021/12/22 08:27:23;;;;;;;23.95;12.48;;;;;;;;;;4920745;29;20165;-81
2021/12/22 08:29:49;;;;;;;24.15;12.75;;;;;;;;;;4922914;29;20028;-80
2021/12/22 08:32:14;;;;;;;22.45;12.27;;;;;;;;;;4920955;29;20024;-81
2021/12/22 08:34:41;;;;;;;24.40;12.73;;;;;;;;;;4920606;29;20123;-80
2021/12/22 08:39:52;;;;;;;21.67;11.32;;;;;;;;;;4929030;29;20100;-81
2021/12/22 08:42:19;;;;;;;21.10;12.05;;;;;;;;;;4921283;29;20040;-80
2021/12/22 08:44:45;;;;;;;30.08;13.07;;;;;;;;;;4920921;29;20036;-81
2021/12/22 08:47:11;;;;;;;22.42;12.13;;;;;;;;;;4920547;29;20043;-81
2021/12/22 08:49:36;;;;;;;25.35;13.95;;;;;;;;;;4920945;29;20035;-81
2021/12/22 08:52:02;;;;;;;18.30;11.10;;;;;;;;;;4921395;29;20140;-81
2021/12/22 08:54:28;;;;;;;22.92;11.18;;;;;;;;;;4926622;29;20035;-80
2021/12/22 08:56:55;;;;;;;19.33;11.82;;;;;;;;;;4919443;29;20028;-81
2021/12/22 08:59:23;;;;;;;23.85;13.32;;;;;;;;;;4928221;29;20063;-80
2021/12/22 09:01:49;;;;;;;22.40;12.85;;;;;;;;;;4920961;29;20092;-80
2021/12/22 09:04:14;;;;;;;25.38;12.98;;;;;;;;;;4918084;29;20084;-80
2021/12/22 09:06:40;;;;;;;29.00;13.52;;;;;;;;;;4930406;29;20471;-80
2021/12/22 09:09:07;;;;;;;21.00;11.50;;;;;;;;;;4929278;29;20036;-81
2021/12/22 09:11:33;;;;;;;31.05;14.50;;;;;;;;;;4929228;29;20103;-81
2021/12/22 09:13:58;;;;;;;26.17;12.95;;;;;;;;;;4914252;29;20119;-80
2021/12/22 09:16:24;;;;;;;17.77;11.43;;;;;;;;;;4930072;29;20390;-81
2021/12/22 09:18:50;;;;;;;27.08;14.55;;;;;;;;;;4930318;29;20020;-82
2021/12/22 09:21:16;;;;;;;26.23;13.90;;;;;;;;;;4929164;29;20024;-81
2021/12/22 09:23:42;;;;;;;24.65;12.00;;;;;;;;;;4904908;29;20035;-80
2021/12/22 09:26:08;;;;;;;26.20;14.00;;;;;;;;;;4919523;29;20024;-80
2021/12/22 09:28:34;;;;;;;20.85;12.43;;;;;;;;;;4920801;29;20083;-81
2021/12/22 09:31:00;;;;;;;26.27;14.13;;;;;;;;;;4920693;29;20024;-82
2021/12/22 09:33:26;;;;;;;28.25;14.15;;;;;;;;;;4923296;29;20028;-84
2021/12/22 09:35:53;;;;;;;28.92;14.70;;;;;;;;;;4922079;29;20035;-84
2021/12/22 09:38:18;;;;;;;30.77;15.30;;;;;;;;;;4922190;29;20508;-85
2021/12/22 09:40:45;;;;;;;28.55;13.77;;;;;;;;;;4921973;29;20458;-84
2021/12/22 09:43:11;;;;;;;28.55;13.98;;;;;;;;;;4922225;29;20039;-81
2021/12/22 09:45:42;;;;;;;21.45;10.80;;;;;;;;;;4927151;29;20047;-84
2021/12/22 09:50:53;;;;;;;25.52;13.18;;;;;;;;;;4923814;29;20044;-85
2021/12/22 09:53:21;;;;;;;25.05;13.05;;;;;;;;;;4906075;29;20061;-84
2021/12/22 09:55:48;;;;;;;25.00;12.82;;;;;;;;;;4904006;29;20040;-85
2021/12/22 09:58:14;;;;;;;25.55;12.90;;;;;;;;;;4922401;29;20093;-81
2021/12/22 10:00:41;;;;;;;33.45;13.85;;;;;;;;;;4923002;29;20040;-82
2021/12/22 10:03:08;;;;;;;26.48;13.32;;;;;;;;;;4904675;29;20028;-82
2021/12/22 10:05:35;;;;;;;23.25;13.70;;;;;;;;;;4922281;29;20058;-83
2021/12/22 10:08:08;;;;;;;27.55;13.02;;;;;;;;;;4923982;29;20028;-84
2021/12/22 10:10:36;;;;;;;25.50;13.52;;;;;;;;;;4905790;29;20039;-85
2021/12/22 10:13:07;;;;;;;20.85;12.38;;;;;;;;;;4906583;29;20047;-81
2021/12/22 10:15:35;;;;;;;25.88;13.88;;;;;;;;;;4927479;29;20058;-83
2021/12/22 10:18:13;;;;;;;25.38;12.65;;;;;;;;;;4924303;29;20035;-83
2021/12/22 10:20:41;;;;;;;25.15;13.77;;;;;;;;;;4922506;29;20039;-84
2021/12/22 10:23:30;;;;;;;22.38;11.80;;;;;;;;;;4924418;29;20054;-83
2021/12/22 10:25:58;;;;;;;19.40;11.85;;;;;;;;;;4922187;29;20558;-84
2021/12/22 10:28:25;;;;;;;29.35;13.05;;;;;;;;;;4922630;29;20051;-85
2021/12/22 10:30:56;;;;;;;25.75;12.50;;;;;;;;;;4922980;29;20123;-83
2021/12/22 10:33:28;;;;;;;27.38;13.82;;;;;;;;;;4925754;29;20096;-85
2021/12/22 10:35:57;;;;;;;35.83;14.38;;;;;;;;;;4924085;29;20036;-86
2021/12/22 10:38:28;;;;;;;24.63;13.23;;;;;;;;;;4925053;29;20028;-84
2021/12/22 10:40:56;;;;;;;28.65;13.60;;;;;;;;;;4922124;29;20027;-83
2021/12/22 10:43:21;;;;;;;26.50;12.63;;;;;;;;;;4924119;29;20024;-84
2021/12/22 10:45:51;;;;;;;21.23;11.30;;;;;;;;;;4923088;29;20056;-82
2021/12/22 10:51:08;;;;;;;19.80;11.35;;;;;;;;;;4924476;29;20566;-83
2021/12/22 10:53:42;;;;;;;29.30;13.48;;;;;;;;;;4933820;29;20073;-84
2021/12/22 10:56:07;;;;;;;24.42;12.77;;;;;;;;;;4924945;29;20103;-85
2021/12/22 10:58:34;;;;;;;24.92;13.65;;;;;;;;;;4927457;29;20068;-84
2021/12/22 11:01:12;;;;;;;17.80;9.52;;;;;;;;;;4929409;29;20044;-83
2021/12/22 11:03:52;;;;;;;17.33;10.95;;;;;;;;;;4928995;29;20038;-87
2021/12/22 11:06:27;;;;;;;14.88;9.20;;;;;;;;;;4909918;29;20062;-85
2021/12/22 11:08:55;;;;;;;23.08;11.88;;;;;;;;;;4925103;29;20383;-82
2021/12/22 11:11:21;;;;;;;20.30;12.27;;;;;;;;;;4924411;29;20032;-82
2021/12/22 11:14:22;;;;;;;20.33;10.65;;;;;;;;;;4925013;29;20024;-86
2021/12/22 11:17:10;;;;;;;13.43;8.63;;;;;;;;;;4906552;29;20024;-85
2021/12/22 11:19:57;;;;;;;19.98;10.63;;;;;;;;;;4924111;29;20024;-85
2021/12/22 11:22:51;;;;;;;19.83;10.82;;;;;;;;;;4938216;29;20035;-86
2021/12/22 11:25:18;;;;;;;18.65;11.10;;;;;;;;;;4922530;29;20634;-82
2021/12/22 11:27:43;;;;;;;17.17;9.88;;;;;;;;;;4926706;29;20091;-83
2021/12/22 11:30:09;;;;;;;18.63;9.82;;;;;;;;;;4929247;29;20047;-85
2021/12/22 11:32:35;;;;;;;20.63;11.15;;;;;;;;;;4922715;29;20027;-84
2021/12/22 11:35:05;;;;;;;17.70;10.48;;;;;;;;;;4922676;29;20742;-85
2021/12/22 11:37:31;;;;;;;28.98;11.15;;;;;;;;;;4922472;29;20060;-85
2021/12/22 11:39:57;;;;;;;21.55;11.15;;;;;;;;;;4923010;29;20032;-85
2021/12/22 11:42:28;;;;;;;19.52;11.57;;;;;;;;;;4927517;29;20035;-85
2021/12/22 11:45:19;;;;;;;19.92;11.55;;;;;;;;;;4904751;29;20393;-85
2021/12/22 11:47:50;;;;;;;19.88;10.98;;;;;;;;;;4909104;29;20040;-86
2021/12/22 11:50:21;;;;;;;20.50;9.77;;;;;;;;;;4886389;29;20096;-85
2021/12/22 11:53:08;;;;;;;19.65;10.45;;;;;;;;;;4903927;29;20051;-83
2021/12/22 11:55:49;;;;;;;13.77;7.88;;;;;;;;;;4909781;29;20487;-86
2021/12/22 11:58:22;;;;;;;21.08;10.43;;;;;;;;;;4921581;29;20032;-83
2021/12/22 12:00:50;;;;;;;16.20;9.45;;;;;;;;;;4920819;29;20497;-84
2021/12/22 12:03:28;;;;;;;21.85;11.95;;;;;;;;;;4902600;29;20037;-85
2021/12/22 12:06:07;;;;;;;27.02;12.35;;;;;;;;;;4885206;29;20543;-84
2021/12/22 12:08:46;;;;;;;15.65;9.20;;;;;;;;;;4930497;29;20048;-85
2021/12/22 12:11:20;;;;;;;14.93;8.98;;;;;;;;;;4923979;29;20095;-84
2021/12/22 12:13:56;;;;;;;19.33;10.63;;;;;;;;;;4910023;29;20038;-86
2021/12/22 12:21:56;;;;;;;25.35;12.10;;;;;;;;;;4923575;29;20095;-86
2021/12/22 12:24:30;;;;;;;18.63;10.60;;;;;;;;;;4903388;29;20036;-84
2021/12/22 12:26:56;;;;;;;24.92;10.82;;;;;;;;;;4938894;29;20027;-86
2021/12/22 12:29:53;;;;;;;19.23;10.02;;;;;;;;;;4920653;29;20059;-86
2021/12/22 12:32:40;;;;;;;17.10;9.73;;;;;;;;;;4920219;29;20032;-86
2021/12/22 12:35:39;;;;;;;21.38;11.45;;;;;;;;;;4919008;29;20036;-85
2021/12/22 12:38:07;;;;;;;14.18;7.65;;;;;;;;;;4913269;29;20092;-84
2021/12/22 12:40:57;;;;;;;21.85;10.95;;;;;;;;;;4920214;29;20042;-86
2021/12/22 12:46:23;;;;;;;18.35;9.82;;;;;;;;;;4919601;29;20064;-83
2021/12/22 12:48:50;;;;;;;21.15;10.50;;;;;;;;;;4934274;29;20028;-81
2021/12/22 12:51:16;;;;;;;16.73;8.68;;;;;;;;;;4920012;29;20666;-85
2021/12/22 12:53:47;;;;;;;19.42;10.70;;;;;;;;;;4919783;29;20115;-85
2021/12/22 12:56:15;;;;;;;15.43;9.20;;;;;;;;;;4923972;29;20479;-85
2021/12/22 12:58:53;;;;;;;21.38;10.23;;;;;;;;;;4918853;29;20028;-85
2021/12/22 13:01:38;;;;;;;16.92;9.27;;;;;;;;;;4919184;29;20043;-84
2021/12/22 13:04:27;;;;;;;17.42;10.05;;;;;;;;;;4928465;29;20111;-83
2021/12/22 13:06:55;;;;;;;16.75;9.52;;;;;;;;;;4925192;29;20038;-85
2021/12/22 13:09:26;;;;;;;17.05;10.35;;;;;;;;;;4909889;29;20128;-84
2021/12/22 13:12:02;;;;;;;15.13;8.60;;;;;;;;;;4924900;29;20040;-85
2021/12/22 13:17:13;;;;;;;14.40;9.70;;;;;;;;;;4923129;29;20038;-85
2021/12/22 13:19:43;;;;;;;16.50;8.07;;;;;;;;;;4923114;29;20433;-85
2021/12/22 13:22:16;;;;;;;19.23;9.82;;;;;;;;;;4923292;29;20036;-84
2021/12/22 13:24:41;;;;;;;23.80;8.95;;;;;;;;;;4937446;29;20028;-85
2021/12/22 13:27:07;;;;;;;14.30;8.80;;;;;;;;;;4929805;29;20032;-87
2021/12/22 13:29:32;;;;;;;17.90;10.25;;;;;;;;;;4922775;29;20371;-86
2021/12/22 13:32:10;;;;;;;17.33;9.85;;;;;;;;;;4923154;29;20034;-84
2021/12/22 13:34:45;;;;;;;15.27;9.13;;;;;;;;;;4922858;29;20105;-86
2021/12/22 13:37:11;;;;;;;18.98;9.77;;;;;;;;;;4923143;29;20032;-85
2021/12/22 13:39:42;;;;;;;19.15;10.43;;;;;;;;;;4905601;29;20458;-84
2021/12/22 13:42:08;;;;;;;22.73;10.67;;;;;;;;;;4922000;29;20036;-86
2021/12/22 13:44:38;;;;;;;19.63;10.23;;;;;;;;;;4927596;29;20060;-85
2021/12/22 13:47:04;;;;;;;18.63;10.10;;;;;;;;;;4909064;29;20035;-85
2021/12/22 13:49:31;;;;;;;18.58;9.45;;;;;;;;;;4909808;29;20084;-84
2021/12/22 13:51:57;;;;;;;19.55;10.77;;;;;;;;;;4927469;29;20032;-84
2021/12/22 13:54:28;;;;;;;16.25;9.48;;;;;;;;;;4910741;29;20047;-86
2021/12/22 13:56:59;;;;;;;20.83;9.20;;;;;;;;;;4914011;29;20031;-82
2021/12/22 13:59:29;;;;;;;20.98;10.73;;;;;;;;;;4908945;29;20028;-85
2021/12/22 14:01:56;;;;;;;17.60;10.05;;;;;;;;;;4926273;29;20028;-84
2021/12/22 14:04:39;;;;;;;18.83;10.80;;;;;;;;;;4923084;29;20032;-86
2021/12/22 14:07:04;;;;;;;20.80;10.88;;;;;;;;;;4925335;29;20483;-86
2021/12/22 14:09:30;;;;;;;20.08;11.10;;;;;;;;;;4914757;29;20034;-85
2021/12/22 14:12:10;;;;;;;16.65;9.88;;;;;;;;;;4922048;29;20032;-84
2021/12/22 14:14:38;;;;;;;16.65;9.90;;;;;;;;;;4937043;29;20027;-85
2021/12/22 14:17:04;;;;;;;19.77;10.70;;;;;;;;;;4905793;29;20226;-86
2021/12/22 14:19:57;;;;;;;22.38;11.60;;;;;;;;;;4905947;29;20028;-86
2021/12/22 14:22:27;;;;;;;16.45;9.63;;;;;;;;;;4906441;29;20111;-83
2021/12/22 14:25:01;;;;;;;19.70;10.32;;;;;;;;;;4905164;29;20028;-84
2021/12/22 14:28:02;;;;;;;25.38;11.95;;;;;;;;;;4908987;29;20060;-85
2021/12/22 14:30:39;;;;;;;23.05;10.88;;;;;;;;;;4898891;29;20028;-85
2021/12/22 14:33:14;;;;;;;20.67;10.80;;;;;;;;;;4922693;29;20494;-80
2021/12/22 14:35:52;;;;;;;21.80;11.70;;;;;;;;;;4922460;29;20047;-86
2021/12/22 14:38:19;;;;;;;22.42;11.95;;;;;;;;;;4922771;29;20063;-84
2021/12/22 14:41:09;;;;;;;17.15;9.98;;;;;;;;;;4922305;29;20433;-87
2021/12/22 14:43:43;;;;;;;18.05;10.63;;;;;;;;;;4919510;29;20028;-86
2021/12/22 14:46:10;;;;;;;20.48;10.63;;;;;;;;;;4922214;29;20047;-85
2021/12/22 14:48:43;;;;;;;17.30;10.25;;;;;;;;;;4922018;29;20047;-85
2021/12/22 14:51:21;;;;;;;23.27;12.02;;;;;;;;;;4922064;29;20035;-86
2021/12/22 14:53:59;;;;;;;19.38;10.60;;;;;;;;;;4922708;29;20019;-84
2021/12/22 14:56:27;;;;;;;19.50;10.65;;;;;;;;;;4927820;29;20036;-85
2021/12/22 14:58:57;;;;;;;20.02;12.13;;;;;;;;;;4923755;29;20027;-86